createdAt,value
2022-10-11T00:00:01.263Z,1015.8
2022-10-11T00:01:01.055Z,1015.8
2022-10-11T00:02:00.950Z,1015.8
2022-10-11T00:03:02.244Z,1015.8
2022-10-11T00:04:01.265Z,1015.8
2022-10-11T00:05:01.224Z,1015.8
2022-10-11T00:06:01.425Z,1015.8
2022-10-11T00:07:01.398Z,1015.8
2022-10-11T00:08:01.396Z,1015.8
2022-10-11T00:09:00.938Z,1015.8
2022-10-11T00:10:00.936Z,1015.8
2022-10-11T00:11:04.088Z,1015.9
2022-10-11T00:12:01.486Z,1015.9
2022-10-11T00:13:01.646Z,1015.9
2022-10-11T00:14:01.235Z,1015.9
2022-10-11T00:15:01.373Z,1015.9
2022-10-11T00:16:07.129Z,1016.0
2022-10-11T00:17:01.403Z,1015.9
2022-10-11T00:18:05.245Z,1015.9
2022-10-11T00:19:00.965Z,1015.9
2022-10-11T00:20:01.007Z,1016.0
2022-10-11T00:21:02.830Z,1015.9
2022-10-11T00:22:01.239Z,1015.9
2022-10-11T00:23:00.928Z,1015.9
2022-10-11T00:24:00.979Z,1015.9
2022-10-11T00:25:00.982Z,1015.9
2022-10-11T00:26:04.058Z,1015.9
2022-10-11T00:27:00.951Z,1015.9
2022-10-11T00:28:01.439Z,1015.9
2022-10-11T00:29:01.276Z,1015.9
2022-10-11T00:30:01.316Z,1016.0
2022-10-11T00:31:01.924Z,1016.0
2022-10-11T00:32:00.933Z,1016.0
2022-10-11T00:33:01.259Z,1016.0
2022-10-11T00:34:00.959Z,1016.0
2022-10-11T00:35:01.938Z,1016.0
2022-10-11T00:36:02.075Z,1016.1
2022-10-11T00:37:00.998Z,1016.1
2022-10-11T00:38:00.958Z,1016.1
2022-10-11T00:39:01.834Z,1016.1
2022-10-11T00:40:01.256Z,1016.1
2022-10-11T00:41:01.254Z,1016.1
2022-10-11T00:42:01.257Z,1016.1
2022-10-11T00:43:01.633Z,1016.1
2022-10-11T00:44:11.006Z,1016.2
2022-10-11T00:45:20.407Z,1016.2
2022-10-11T00:46:05.922Z,1016.2
2022-10-11T00:47:05.396Z,1016.2
2022-10-11T00:48:05.679Z,1016.2
2022-10-11T00:49:06.541Z,1016.3
2022-10-11T00:50:01.475Z,1016.2
2022-10-11T00:51:05.765Z,1016.3
2022-10-11T00:52:05.054Z,1016.3
2022-10-11T00:53:06.083Z,1016.3
2022-10-11T00:54:02.277Z,1016.3
2022-10-11T00:55:05.399Z,1016.3
2022-10-11T00:56:06.252Z,1016.3
2022-10-11T00:57:06.253Z,1016.3
2022-10-11T00:58:01.311Z,1016.3
2022-10-11T00:59:04.021Z,1016.4
2022-10-11T01:00:05.469Z,1016.4
2022-10-11T01:01:02.162Z,1016.4
2022-10-11T01:02:01.973Z,1016.4
2022-10-11T01:03:03.748Z,1016.5
2022-10-11T01:04:01.689Z,1016.5
2022-10-11T01:05:27.608Z,1016.5
2022-10-11T01:06:01.648Z,1016.5
2022-10-11T01:07:01.708Z,1016.5
2022-10-11T01:08:02.571Z,1016.5
2022-10-11T01:09:01.392Z,1016.6
2022-10-11T01:10:01.228Z,1016.5
2022-10-11T01:11:01.544Z,1016.6
2022-10-11T01:12:04.488Z,1016.6
2022-10-11T01:13:09.006Z,1016.6
2022-10-11T01:14:20.424Z,1016.7
2022-10-11T01:15:13.232Z,1016.7
2022-10-11T01:16:10.728Z,1016.7
2022-10-11T01:17:09.648Z,1016.7
2022-10-11T01:18:07.311Z,1016.7
2022-10-11T01:19:14.545Z,1016.7
2022-10-11T01:20:20.399Z,1016.8
2022-10-11T01:21:09.372Z,1016.7
2022-10-11T01:22:13.905Z,1016.8
2022-10-11T01:23:20.414Z,1016.7
2022-10-11T01:24:19.301Z,1016.7
2022-10-11T01:25:17.518Z,1016.8
2022-10-11T01:26:20.427Z,1016.8
2022-10-11T01:27:20.431Z,1016.8
2022-10-11T01:28:19.023Z,1016.8
2022-10-11T01:29:10.593Z,1016.8
2022-10-11T01:30:14.682Z,1016.9
2022-10-11T01:31:07.264Z,1016.9
2022-10-11T01:32:09.178Z,1016.9
2022-10-11T01:33:12.373Z,1016.9
2022-10-11T01:34:05.670Z,1016.9
2022-10-11T01:35:09.793Z,1017.0
2022-10-11T01:36:11.214Z,1017.0
2022-10-11T01:37:07.727Z,1017.0
2022-10-11T01:38:09.626Z,1017.0
2022-10-11T01:39:05.807Z,1017.0
2022-10-11T01:40:06.601Z,1017.0
2022-10-11T01:41:07.325Z,1017.0
2022-10-11T01:42:05.094Z,1017.0
2022-10-11T01:43:03.564Z,1017.0
2022-10-11T01:44:02.853Z,1017.1
2022-10-11T01:45:01.747Z,1017.1
2022-10-11T01:46:03.654Z,1017.1
2022-10-11T01:47:00.958Z,1017.1
2022-10-11T01:48:03.383Z,1017.1
2022-10-11T01:49:02.705Z,1017.1
2022-10-11T01:50:01.793Z,1017.1
2022-10-11T01:51:02.732Z,1017.0
2022-10-11T01:52:05.049Z,1017.1
2022-10-11T01:53:14.946Z,1017.1
2022-10-11T01:54:13.802Z,1017.1
2022-10-11T01:55:18.933Z,1017.1
2022-10-11T01:56:09.141Z,1017.1
2022-10-11T01:57:20.434Z,1017.1
2022-10-11T01:58:12.958Z,1017.2
2022-10-11T01:59:17.625Z,1017.2
2022-10-11T02:00:11.777Z,1017.2
2022-10-11T02:01:12.250Z,1017.2
2022-10-11T02:02:14.982Z,1017.2
2022-10-11T02:03:12.442Z,1017.2
2022-10-11T02:04:09.912Z,1017.2
2022-10-11T02:05:08.438Z,1017.2
2022-10-11T02:06:08.081Z,1017.2
2022-10-11T02:07:09.085Z,1017.2
2022-10-11T02:08:08.208Z,1017.2
2022-10-11T02:09:11.116Z,1017.2
2022-10-11T02:10:08.237Z,1017.2
2022-10-11T02:11:06.711Z,1017.2
2022-10-11T02:12:06.375Z,1017.2
2022-10-11T02:13:07.059Z,1017.2
2022-10-11T02:14:08.946Z,1017.3
2022-10-11T02:15:05.270Z,1017.3
2022-10-11T02:16:08.484Z,1017.3
2022-10-11T02:17:06.790Z,1017.2
2022-10-11T02:18:07.653Z,1017.3
2022-10-11T02:19:05.270Z,1017.2
2022-10-11T02:20:06.859Z,1017.2
2022-10-11T02:21:06.023Z,1017.3
2022-10-11T02:22:09.143Z,1017.3
2022-10-11T02:23:07.431Z,1017.2
2022-10-11T02:24:06.335Z,1017.2
2022-10-11T02:25:06.293Z,1017.3
2022-10-11T02:26:05.425Z,1017.3
2022-10-11T02:27:04.451Z,1017.3
2022-10-11T02:28:07.477Z,1017.3
2022-10-11T02:29:06.476Z,1017.3
2022-10-11T02:30:04.166Z,1017.3
2022-10-11T02:31:04.297Z,1017.3
2022-10-11T02:32:01.731Z,1017.3
2022-10-11T02:33:04.966Z,1017.2
2022-10-11T02:34:10.667Z,1017.3
2022-10-11T02:35:02.860Z,1017.3
2022-10-11T02:36:10.545Z,1017.3
2022-10-11T02:37:05.287Z,1017.3
2022-10-11T02:38:09.100Z,1017.3
2022-10-11T02:39:07.266Z,1017.3
2022-10-11T02:40:08.926Z,1017.3
2022-10-11T02:41:08.379Z,1017.3
2022-10-11T02:42:05.844Z,1017.2
2022-10-11T02:43:04.828Z,1017.3
2022-10-11T02:44:07.125Z,1017.2
2022-10-11T02:45:07.162Z,1017.3
2022-10-11T02:46:03.659Z,1017.3
2022-10-11T02:47:02.935Z,1017.3
2022-10-11T02:48:02.141Z,1017.3
2022-10-11T02:49:01.958Z,1017.3
2022-10-11T02:50:01.707Z,1017.3
2022-10-11T02:51:02.351Z,1017.3
2022-10-11T02:52:03.682Z,1017.3
2022-10-11T02:53:01.481Z,1017.3
2022-10-11T02:54:00.967Z,1017.3
2022-10-11T02:55:00.982Z,1017.3
2022-10-11T02:56:00.999Z,1017.3
2022-10-11T02:57:00.972Z,1017.3
2022-10-11T02:58:01.353Z,1017.3
2022-10-11T02:59:01.239Z,1017.3
2022-10-11T03:00:00.939Z,1017.3
2022-10-11T03:01:01.378Z,1017.3
2022-10-11T03:02:01.452Z,1017.2
2022-10-11T03:03:00.918Z,1017.2
2022-10-11T03:04:00.966Z,1017.3
2022-10-11T03:05:01.386Z,1017.3
2022-10-11T03:06:03.132Z,1017.3
2022-10-11T03:07:00.927Z,1017.3
2022-10-11T03:08:01.240Z,1017.3
2022-10-11T03:09:00.960Z,1017.3
2022-10-11T03:10:01.259Z,1017.3
2022-10-11T03:11:01.446Z,1017.3
2022-10-11T03:12:00.935Z,1017.3
2022-10-11T03:13:01.862Z,1017.3
2022-10-11T03:14:00.915Z,1017.3
2022-10-11T03:15:00.966Z,1017.3
2022-10-11T03:16:03.605Z,1017.3
2022-10-11T03:17:23.828Z,1017.3
2022-10-11T03:18:00.965Z,1017.3
2022-10-11T03:19:01.389Z,1017.3
2022-10-11T03:20:00.936Z,1017.3
2022-10-11T03:21:01.263Z,1017.3
2022-10-11T03:22:01.270Z,1017.3
2022-10-11T03:23:00.951Z,1017.3
2022-10-11T03:24:01.499Z,1017.2
2022-10-11T03:25:04.310Z,1017.3
2022-10-11T03:26:01.318Z,1017.3
2022-10-11T03:27:01.218Z,1017.3
2022-10-11T03:28:01.406Z,1017.3
2022-10-11T03:29:00.943Z,1017.3
2022-10-11T03:30:01.283Z,1017.3
2022-10-11T03:31:01.339Z,1017.3
2022-10-11T03:32:00.977Z,1017.2
2022-10-11T03:33:01.264Z,1017.2
2022-10-11T03:34:01.316Z,1017.2
2022-10-11T03:35:02.248Z,1017.2
2022-10-11T03:36:01.025Z,1017.2
2022-10-11T03:37:00.931Z,1017.3
2022-10-11T03:38:01.239Z,1017.3
2022-10-11T03:39:01.306Z,1017.3
2022-10-11T03:40:01.260Z,1017.3
2022-10-11T03:41:01.301Z,1017.3
2022-10-11T03:42:00.932Z,1017.3
2022-10-11T03:43:00.959Z,1017.3
2022-10-11T03:44:01.229Z,1017.4
2022-10-11T03:45:01.606Z,1017.4
2022-10-11T03:46:02.029Z,1017.3
2022-10-11T03:47:01.242Z,1017.3
2022-10-11T03:48:01.587Z,1017.3
2022-10-11T03:49:01.291Z,1017.3
2022-10-11T03:50:01.290Z,1017.2
2022-10-11T03:51:01.243Z,1017.3
2022-10-11T03:52:01.237Z,1017.3
2022-10-11T03:53:01.290Z,1017.2
2022-10-11T03:54:00.938Z,1017.3
2022-10-11T03:55:01.063Z,1017.3
2022-10-11T03:56:05.919Z,1017.3
2022-10-11T03:57:01.331Z,1017.3
2022-10-11T03:58:00.942Z,1017.3
2022-10-11T03:59:01.284Z,1017.4
2022-10-11T04:00:01.286Z,1017.4
2022-10-11T04:01:01.236Z,1017.4
2022-10-11T04:02:01.071Z,1017.4
2022-10-11T04:03:01.363Z,1017.4
2022-10-11T04:04:01.120Z,1017.4
2022-10-11T04:05:01.590Z,1017.4
2022-10-11T04:06:01.659Z,1017.4
2022-10-11T04:07:01.324Z,1017.4
2022-10-11T04:08:01.461Z,1017.4
2022-10-11T04:09:01.567Z,1017.4
2022-10-11T04:10:01.256Z,1017.4
2022-10-11T04:11:00.952Z,1017.4
2022-10-11T04:12:00.957Z,1017.4
2022-10-11T04:13:01.237Z,1017.4
2022-10-11T04:14:01.236Z,1017.4
2022-10-11T04:15:01.234Z,1017.4
2022-10-11T04:16:01.154Z,1017.4
2022-10-11T04:17:01.228Z,1017.4
2022-10-11T04:18:01.289Z,1017.4
2022-10-11T04:19:01.629Z,1017.4
2022-10-11T04:20:01.251Z,1017.4
2022-10-11T04:21:00.951Z,1017.3
2022-10-11T04:22:01.258Z,1017.3
2022-10-11T04:23:01.283Z,1017.3
2022-10-11T04:24:00.983Z,1017.3
2022-10-11T04:25:01.251Z,1017.3
2022-10-11T04:26:04.566Z,1017.3
2022-10-11T04:27:01.246Z,1017.4
2022-10-11T04:28:01.229Z,1017.3
2022-10-11T04:29:01.245Z,1017.3
2022-10-11T04:30:01.623Z,1017.3
2022-10-11T04:31:01.238Z,1017.3
2022-10-11T04:32:01.310Z,1017.3
2022-10-11T04:33:01.255Z,1017.1
2022-10-11T04:34:00.973Z,1017.2
2022-10-11T04:35:01.257Z,1017.2
2022-10-11T04:36:01.622Z,1017.2
2022-10-11T04:37:00.953Z,1017.2
2022-10-11T04:38:00.958Z,1017.1
2022-10-11T04:39:01.366Z,1017.1
2022-10-11T04:40:01.322Z,1017.1
2022-10-11T04:41:06.853Z,1017.1
2022-10-11T04:42:00.952Z,1017.1
2022-10-11T04:43:01.022Z,1017.0
2022-10-11T04:44:01.806Z,1017.1
2022-10-11T04:45:01.265Z,1017.1
2022-10-11T04:46:01.426Z,1017.1
2022-10-11T04:47:01.000Z,1017.2
2022-10-11T04:48:00.966Z,1017.2
2022-10-11T04:49:01.273Z,1017.2
2022-10-11T04:50:01.230Z,1017.3
2022-10-11T04:51:01.296Z,1017.2
2022-10-11T04:52:01.206Z,1017.2
2022-10-11T04:53:01.445Z,1017.3
2022-10-11T04:54:01.322Z,1017.2
2022-10-11T04:55:01.258Z,1017.3
2022-10-11T04:56:04.610Z,1017.2
2022-10-11T04:57:00.949Z,1017.2
2022-10-11T04:58:01.247Z,1017.3
2022-10-11T04:59:01.416Z,1017.2
2022-10-11T05:00:01.002Z,1017.2
2022-10-11T05:01:01.252Z,1017.2
2022-10-11T05:02:01.016Z,1017.2
2022-10-11T05:03:01.170Z,1017.2
2022-10-11T05:04:00.971Z,1017.2
2022-10-11T05:05:01.308Z,1017.1
2022-10-11T05:06:05.481Z,1017.2
2022-10-11T05:07:00.943Z,1017.2
2022-10-11T05:08:00.940Z,1017.2
2022-10-11T05:09:00.939Z,1017.2
2022-10-11T05:10:01.288Z,1017.3
2022-10-11T05:11:03.925Z,1017.3
2022-10-11T05:12:00.955Z,1017.3
2022-10-11T05:13:01.247Z,1017.3
2022-10-11T05:14:01.795Z,1017.3
2022-10-11T05:15:01.571Z,1017.2
2022-10-11T05:16:04.033Z,1017.3
2022-10-11T05:17:00.987Z,1017.3
2022-10-11T05:18:00.959Z,1017.3
2022-10-11T05:19:01.259Z,1017.3
2022-10-11T05:20:01.285Z,1017.3
2022-10-11T05:21:03.222Z,1017.3
2022-10-11T05:22:00.942Z,1017.2
2022-10-11T05:23:00.951Z,1017.2
2022-10-11T05:24:00.935Z,1017.2
2022-10-11T05:25:01.298Z,1017.3
2022-10-11T05:26:02.316Z,1017.3
2022-10-11T05:27:03.551Z,1017.3
2022-10-11T05:28:00.975Z,1017.3
2022-10-11T05:29:01.040Z,1017.3
2022-10-11T05:30:00.934Z,1017.3
2022-10-11T05:31:01.225Z,1017.3
2022-10-11T05:32:01.228Z,1017.3
2022-10-11T05:33:00.934Z,1017.3
2022-10-11T05:34:01.222Z,1017.4
2022-10-11T05:35:00.939Z,1017.3
2022-10-11T05:36:01.741Z,1017.4
2022-10-11T05:37:00.940Z,1017.4
2022-10-11T05:38:01.270Z,1017.4
2022-10-11T05:39:01.318Z,1017.4
2022-10-11T05:40:01.254Z,1017.4
2022-10-11T05:41:03.072Z,1017.4
2022-10-11T05:42:00.916Z,1017.4
2022-10-11T05:43:00.926Z,1017.4
2022-10-11T05:44:01.231Z,1017.4
2022-10-11T05:45:00.930Z,1017.4
2022-10-11T05:46:01.489Z,1017.3
2022-10-11T05:47:01.612Z,1017.4
2022-10-11T05:48:01.246Z,1017.4
2022-10-11T05:49:00.941Z,1017.4
2022-10-11T05:50:00.952Z,1017.4
2022-10-11T05:51:01.246Z,1017.5
2022-10-11T05:52:00.960Z,1017.5
2022-10-11T05:53:01.772Z,1017.5
2022-10-11T05:54:00.940Z,1017.5
2022-10-11T05:55:01.328Z,1017.5
2022-10-11T05:56:01.398Z,1017.5
2022-10-11T05:57:00.986Z,1017.5
2022-10-11T05:58:01.148Z,1017.5
2022-10-11T05:59:02.533Z,1017.5
2022-10-11T06:00:01.383Z,1017.5
2022-10-11T06:01:00.967Z,1017.5
2022-10-11T06:02:00.965Z,1017.5
2022-10-11T06:03:00.936Z,1017.5
2022-10-11T06:04:01.255Z,1017.5
2022-10-11T06:05:01.268Z,1017.5
2022-10-11T06:06:01.406Z,1017.5
2022-10-11T06:07:00.954Z,1017.5
2022-10-11T06:08:01.528Z,1017.5
2022-10-11T06:09:01.334Z,1017.5
2022-10-11T06:10:01.218Z,1017.5
2022-10-11T06:11:12.053Z,1017.5
2022-10-11T06:12:01.344Z,1017.5
2022-10-11T06:13:01.607Z,1017.5
2022-10-11T06:14:00.971Z,1017.5
2022-10-11T06:15:01.190Z,1017.5
2022-10-11T06:16:03.247Z,1017.6
2022-10-11T06:17:01.243Z,1017.6
2022-10-11T06:18:01.244Z,1017.6
2022-10-11T06:19:00.941Z,1017.6
2022-10-11T06:20:01.165Z,1017.5
2022-10-11T06:21:01.434Z,1017.6
2022-10-11T06:22:01.263Z,1017.5
2022-10-11T06:23:01.363Z,1017.5
2022-10-11T06:24:01.718Z,1017.5
2022-10-11T06:25:01.416Z,1017.5
2022-10-11T06:26:03.828Z,1017.5
2022-10-11T06:27:01.245Z,1017.5
2022-10-11T06:28:00.970Z,1017.5
2022-10-11T06:29:01.068Z,1017.5
2022-10-11T06:30:01.009Z,1017.5
2022-10-11T06:31:03.957Z,1017.6
2022-10-11T06:32:01.382Z,1017.5
2022-10-11T06:33:04.651Z,1017.6
2022-10-11T06:34:01.292Z,1017.5
2022-10-11T06:35:01.280Z,1017.6
2022-10-11T06:36:03.882Z,1017.6
2022-10-11T06:37:01.247Z,1017.6
2022-10-11T06:38:01.239Z,1017.5
2022-10-11T06:39:01.492Z,1017.6
2022-10-11T06:40:00.940Z,1017.5
2022-10-11T06:41:09.037Z,1017.6
2022-10-11T06:42:01.908Z,1017.6
2022-10-11T06:43:01.231Z,1017.6
2022-10-11T06:44:00.951Z,1017.6
2022-10-11T06:45:01.231Z,1017.5
2022-10-11T06:46:01.316Z,1017.6
2022-10-11T06:47:00.994Z,1017.5
2022-10-11T06:48:00.979Z,1017.6
2022-10-11T06:49:01.243Z,1017.6
2022-10-11T06:50:00.921Z,1017.6
2022-10-11T06:51:01.014Z,1017.6
2022-10-11T06:52:01.250Z,1017.5
2022-10-11T06:53:01.218Z,1017.5
2022-10-11T06:54:01.791Z,1017.5
2022-10-11T06:55:00.928Z,1017.5
2022-10-11T06:56:02.873Z,1017.5
2022-10-11T06:57:00.969Z,1017.5
2022-10-11T06:58:00.963Z,1017.4
2022-10-11T06:59:01.386Z,1017.4
2022-10-11T07:00:01.038Z,1017.5
2022-10-11T07:01:02.872Z,1017.4
2022-10-11T07:02:01.240Z,1017.5
2022-10-11T07:03:01.260Z,1017.5
2022-10-11T07:04:01.138Z,1017.5
2022-10-11T07:05:01.250Z,1017.5
2022-10-11T07:06:02.763Z,1017.5
2022-10-11T07:07:01.238Z,1017.5
2022-10-11T07:08:01.005Z,1017.5
2022-10-11T07:09:01.367Z,1017.5
2022-10-11T07:10:01.259Z,1017.5
2022-10-11T07:11:05.191Z,1017.5
2022-10-11T07:12:00.924Z,1017.5
2022-10-11T07:13:01.236Z,1017.5
2022-10-11T07:14:03.665Z,1017.5
2022-10-11T07:15:01.470Z,1017.5
2022-10-11T07:16:01.786Z,1017.5
2022-10-11T07:17:01.005Z,1017.5
2022-10-11T07:18:01.036Z,1017.6
2022-10-11T07:19:03.451Z,1017.6
2022-10-11T07:20:00.971Z,1017.6
2022-10-11T07:21:02.827Z,1017.5
2022-10-11T07:22:00.983Z,1017.5
2022-10-11T07:23:01.324Z,1017.4
2022-10-11T07:24:01.736Z,1017.5
2022-10-11T07:25:01.272Z,1017.4
2022-10-11T07:26:02.216Z,1017.5
2022-10-11T07:27:00.950Z,1017.5
2022-10-11T07:28:00.933Z,1017.5
2022-10-11T07:29:01.389Z,1017.5
2022-10-11T07:30:01.293Z,1017.5
2022-10-11T07:31:04.355Z,1017.5
2022-10-11T07:32:01.312Z,1017.5
2022-10-11T07:33:00.929Z,1017.5
2022-10-11T07:34:01.219Z,1017.5
2022-10-11T07:35:01.239Z,1017.5
2022-10-11T07:36:01.549Z,1017.4
2022-10-11T07:37:01.318Z,1017.5
2022-10-11T07:38:01.115Z,1017.5
2022-10-11T07:39:03.365Z,1017.4
2022-10-11T07:40:01.245Z,1017.4
2022-10-11T07:41:04.624Z,1017.5
2022-10-11T07:42:00.947Z,1017.5
2022-10-11T07:43:00.933Z,1017.4
2022-10-11T07:44:01.363Z,1017.5
2022-10-11T07:45:01.884Z,1017.5
2022-10-11T07:46:01.230Z,1017.5
2022-10-11T07:47:01.321Z,1017.5
2022-10-11T07:48:01.314Z,1017.5
2022-10-11T07:49:00.953Z,1017.6
2022-10-11T07:50:00.940Z,1017.5
2022-10-11T07:51:03.195Z,1017.6
2022-10-11T07:52:00.943Z,1017.6
2022-10-11T07:53:01.365Z,1017.6
2022-10-11T07:54:06.974Z,1017.6
2022-10-11T07:55:00.937Z,1017.6
2022-10-11T07:56:01.010Z,1017.6
2022-10-11T07:57:00.934Z,1017.6
2022-10-11T07:58:01.237Z,1017.6
2022-10-11T07:59:02.041Z,1017.6
2022-10-11T08:00:01.276Z,1017.6
2022-10-11T08:01:01.050Z,1017.6
2022-10-11T08:02:01.298Z,1017.6
2022-10-11T08:03:01.523Z,1017.6
2022-10-11T08:04:01.057Z,1017.6
2022-10-11T08:05:00.950Z,1017.6
2022-10-11T08:06:02.200Z,1017.6
2022-10-11T08:07:01.249Z,1017.6
2022-10-11T08:08:00.942Z,1017.6
2022-10-11T08:09:01.475Z,1017.6
2022-10-11T08:10:01.645Z,1017.6
2022-10-11T08:11:01.330Z,1017.6
2022-10-11T08:12:00.921Z,1017.6
2022-10-11T08:13:04.444Z,1017.6
2022-10-11T08:14:03.111Z,1017.7
2022-10-11T08:15:01.029Z,1017.6
2022-10-11T08:16:10.056Z,1017.6
2022-10-11T08:17:01.266Z,1017.7
2022-10-11T08:18:01.265Z,1017.6
2022-10-11T08:19:01.063Z,1017.6
2022-10-11T08:20:01.224Z,1017.6
2022-10-11T08:21:05.423Z,1017.6
2022-10-11T08:22:01.156Z,1017.6
2022-10-11T08:23:00.965Z,1017.6
2022-10-11T08:24:02.755Z,1017.6
2022-10-11T08:25:00.975Z,1017.7
2022-10-11T08:26:01.581Z,1017.7
2022-10-11T08:27:00.932Z,1017.6
2022-10-11T08:28:00.940Z,1017.6
2022-10-11T08:29:01.367Z,1017.6
2022-10-11T08:30:01.319Z,1017.6
2022-10-11T08:31:01.915Z,1017.7
2022-10-11T08:32:01.225Z,1017.7
2022-10-11T08:33:04.978Z,1017.7
2022-10-11T08:34:00.976Z,1017.7
2022-10-11T08:35:00.970Z,1017.7
2022-10-11T08:36:05.287Z,1017.8
2022-10-11T08:37:00.923Z,1017.8
2022-10-11T08:38:01.228Z,1017.8
2022-10-11T08:39:01.275Z,1017.8
2022-10-11T08:40:00.993Z,1017.8
2022-10-11T08:41:01.673Z,1017.8
2022-10-11T08:42:04.681Z,1017.7
2022-10-11T08:43:05.062Z,1017.7
2022-10-11T08:44:16.065Z,1017.8
2022-10-11T08:45:11.771Z,1017.8
2022-10-11T08:46:04.118Z,1017.8
2022-10-11T08:47:06.626Z,1017.8
2022-10-11T08:48:07.622Z,1017.8
2022-10-11T08:49:01.744Z,1017.8
2022-10-11T08:50:03.670Z,1017.8
2022-10-11T08:51:04.619Z,1017.8
2022-10-11T08:52:03.666Z,1017.8
2022-10-11T08:53:06.860Z,1017.8
2022-10-11T08:54:07.813Z,1017.8
2022-10-11T08:55:05.088Z,1017.9
2022-10-11T08:56:01.629Z,1017.9
2022-10-11T08:57:03.154Z,1017.9
2022-10-11T08:58:01.838Z,1017.9
2022-10-11T08:59:08.089Z,1018.0
2022-10-11T09:00:04.972Z,1018.0
2022-10-11T09:01:01.998Z,1017.9
2022-10-11T09:02:12.240Z,1017.9
2022-10-11T09:03:10.214Z,1017.9
2022-10-11T09:04:01.299Z,1017.9
2022-10-11T09:05:03.904Z,1017.9
2022-10-11T09:06:11.053Z,1017.9
2022-10-11T09:07:06.288Z,1017.9
2022-10-11T09:08:09.724Z,1018.0
2022-10-11T09:09:12.757Z,1017.9
2022-10-11T09:10:13.406Z,1017.9
2022-10-11T09:11:09.214Z,1018.0
2022-10-11T09:12:13.476Z,1017.9
2022-10-11T09:13:13.556Z,1018.0
2022-10-11T09:14:13.715Z,1017.9
2022-10-11T09:15:15.949Z,1017.9
2022-10-11T09:16:12.937Z,1018.0
2022-10-11T09:17:11.019Z,1017.9
2022-10-11T09:18:14.525Z,1017.9
2022-10-11T09:19:20.162Z,1017.9
2022-10-11T09:20:20.545Z,1017.9
2022-10-11T09:21:15.907Z,1017.9
2022-10-11T09:22:12.158Z,1018.0
2022-10-11T09:23:04.406Z,1017.9
2022-10-11T09:24:17.794Z,1018.0
2022-10-11T09:25:17.452Z,1017.9
2022-10-11T09:26:06.108Z,1018.0
2022-10-11T09:27:07.431Z,1018.0
2022-10-11T09:28:11.532Z,1018.0
2022-10-11T09:29:09.853Z,1018.0
2022-10-11T09:30:04.654Z,1018.0
2022-10-11T09:31:01.287Z,1018.0
2022-10-11T09:32:01.660Z,1018.0
2022-10-11T09:33:12.423Z,1018.1
2022-10-11T09:34:10.329Z,1018.0
2022-10-11T09:35:11.199Z,1018.1
2022-10-11T09:36:11.548Z,1018.1
2022-10-11T09:37:13.297Z,1018.1
2022-10-11T09:38:05.181Z,1018.2
2022-10-11T09:39:07.026Z,1018.2
2022-10-11T09:40:06.366Z,1018.1
2022-10-11T09:41:12.706Z,1018.1
2022-10-11T09:42:02.994Z,1018.2
2022-10-11T09:43:01.260Z,1018.2
2022-10-11T09:44:01.455Z,1018.2
2022-10-11T09:45:01.824Z,1018.2
2022-10-11T09:46:01.266Z,1018.3
2022-10-11T09:47:01.001Z,1018.3
2022-10-11T09:48:04.492Z,1018.2
2022-10-11T09:49:03.766Z,1018.3
2022-10-11T09:50:03.857Z,1018.2
2022-10-11T09:51:05.900Z,1018.3
2022-10-11T09:52:03.489Z,1018.3
2022-10-11T09:53:03.708Z,1018.3
2022-10-11T09:54:04.020Z,1018.3
2022-10-11T09:55:02.663Z,1018.4
2022-10-11T09:56:03.948Z,1018.4
2022-10-11T09:57:01.319Z,1018.4
2022-10-11T09:58:02.376Z,1018.4
2022-10-11T09:59:20.403Z,1018.3
2022-10-11T10:00:05.548Z,1018.3
2022-10-11T10:01:07.861Z,1018.4
2022-10-11T10:02:19.419Z,1018.4
2022-10-11T10:03:03.272Z,1018.3
2022-10-11T10:04:08.743Z,1018.3
2022-10-11T10:05:12.810Z,1018.3
2022-10-11T10:06:08.338Z,1018.3
2022-10-11T10:07:11.097Z,1018.3
2022-10-11T10:08:05.408Z,1018.3
2022-10-11T10:09:20.412Z,1018.3
2022-10-11T10:10:20.398Z,1018.3
2022-10-11T10:11:03.856Z,1018.3
2022-10-11T10:12:11.212Z,1018.3
2022-10-11T10:13:03.406Z,1018.3
2022-10-11T10:14:01.084Z,1018.4
2022-10-11T10:15:06.117Z,1018.4
2022-10-11T10:16:01.111Z,1018.4
2022-10-11T10:17:03.819Z,1018.4
2022-10-11T10:18:03.112Z,1018.4
2022-10-11T10:19:03.950Z,1018.5
2022-10-11T10:20:01.807Z,1018.4
2022-10-11T10:21:03.172Z,1018.5
2022-10-11T10:22:01.524Z,1018.5
2022-10-11T10:23:08.838Z,1018.5
2022-10-11T10:24:06.678Z,1018.4
2022-10-11T10:25:04.656Z,1018.4
2022-10-11T10:26:12.201Z,1018.4
2022-10-11T10:27:06.870Z,1018.5
2022-10-11T10:28:02.994Z,1018.5
2022-10-11T10:29:13.451Z,1018.5
2022-10-11T10:30:12.846Z,1018.5
2022-10-11T10:31:00.934Z,1018.5
2022-10-11T10:32:14.968Z,1018.5
2022-10-11T10:33:05.383Z,1018.6
2022-10-11T10:34:02.722Z,1018.6
2022-10-11T10:35:07.943Z,1018.6
2022-10-11T10:36:11.121Z,1018.6
2022-10-11T10:37:05.744Z,1018.5
2022-10-11T10:38:14.724Z,1018.5
2022-10-11T10:39:09.420Z,1018.5
2022-10-11T10:40:08.245Z,1018.5
2022-10-11T10:41:03.707Z,1018.6
2022-10-11T10:42:04.267Z,1018.6
2022-10-11T10:43:01.362Z,1018.6
2022-10-11T10:44:03.165Z,1018.6
2022-10-11T10:45:02.244Z,1018.6
2022-10-11T10:46:18.167Z,1018.7
2022-10-11T10:47:09.158Z,1018.6
2022-10-11T10:48:15.436Z,1018.7
2022-10-11T10:49:52.576Z,1018.7
2022-10-11T10:50:06.533Z,1018.6
2022-10-11T10:51:12.322Z,1018.7
2022-10-11T10:52:20.418Z,1018.7
2022-10-11T10:53:14.174Z,1018.7
2022-10-11T10:54:11.635Z,1018.7
2022-10-11T10:55:13.275Z,1018.7
2022-10-11T10:56:07.423Z,1018.6
2022-10-11T10:57:03.700Z,1018.7
2022-10-11T10:58:09.402Z,1018.7
2022-10-11T10:59:15.055Z,1018.7
2022-10-11T11:00:11.712Z,1018.7
2022-10-11T11:01:11.420Z,1018.7
2022-10-11T11:02:28.172Z,1018.8
2022-10-11T11:03:02.941Z,1018.7
2022-10-11T11:04:09.454Z,1018.7
2022-10-11T11:05:12.643Z,1018.7
2022-10-11T11:06:06.348Z,1018.7
2022-10-11T11:07:12.302Z,1018.7
2022-10-11T11:08:12.029Z,1018.7
2022-10-11T11:09:10.766Z,1018.8
2022-10-11T11:10:05.409Z,1018.8
2022-10-11T11:11:11.187Z,1018.8
2022-10-11T11:12:13.211Z,1018.8
2022-10-11T11:13:16.937Z,1018.8
2022-10-11T11:14:12.894Z,1018.9
2022-10-11T11:15:07.951Z,1018.9
2022-10-11T11:16:10.048Z,1018.9
2022-10-11T11:17:11.480Z,1018.9
2022-10-11T11:18:16.003Z,1018.8
2022-10-11T11:19:10.912Z,1018.8
2022-10-11T11:20:16.374Z,1018.9
2022-10-11T11:21:12.351Z,1018.9
2022-10-11T11:22:09.857Z,1018.9
2022-10-11T11:23:14.061Z,1018.9
2022-10-11T11:24:12.852Z,1019.0
2022-10-11T11:25:13.869Z,1019.0
2022-10-11T11:26:11.598Z,1019.0
2022-10-11T11:27:08.405Z,1019.0
2022-10-11T11:28:15.651Z,1019.0
2022-10-11T11:29:13.864Z,1019.1
2022-10-11T11:30:05.657Z,1019.1
2022-10-11T11:31:11.231Z,1019.1
2022-10-11T11:32:13.502Z,1019.1
2022-10-11T11:33:09.543Z,1019.0
2022-10-11T11:34:10.755Z,1019.0
2022-10-11T11:35:08.176Z,1019.0
2022-10-11T11:36:07.211Z,1019.0
2022-10-11T11:37:04.668Z,1019.1
2022-10-11T11:38:09.344Z,1019.1
2022-10-11T11:39:04.305Z,1019.1
2022-10-11T11:40:07.355Z,1019.1
2022-10-11T11:41:07.838Z,1019.1
2022-10-11T11:42:06.671Z,1019.2
2022-10-11T11:43:03.694Z,1019.1
2022-10-11T11:44:05.217Z,1019.2
2022-10-11T11:45:11.359Z,1019.2
2022-10-11T11:46:07.945Z,1019.1
2022-10-11T11:47:05.701Z,1019.2
2022-10-11T11:48:05.598Z,1019.2
2022-10-11T11:49:12.958Z,1019.2
2022-10-11T11:50:12.928Z,1019.3
2022-10-11T11:51:06.209Z,1019.2
2022-10-11T11:52:03.571Z,1019.2
2022-10-11T11:53:05.484Z,1019.2
2022-10-11T11:54:11.697Z,1019.3
2022-10-11T11:55:08.567Z,1019.3
2022-10-11T11:56:07.503Z,1019.3
2022-10-11T11:57:10.890Z,1019.3
2022-10-11T11:58:15.316Z,1019.3
2022-10-11T11:59:09.388Z,1019.3
2022-10-11T12:00:05.386Z,1019.3
2022-10-11T12:01:11.562Z,1019.3
2022-10-11T12:02:21.446Z,1019.3
2022-10-11T12:03:04.522Z,1019.4
2022-10-11T12:04:06.493Z,1019.4
2022-10-11T12:05:01.585Z,1019.4
2022-10-11T12:06:20.411Z,1019.4
2022-10-11T12:07:15.928Z,1019.4
2022-10-11T12:08:05.607Z,1019.4
2022-10-11T12:09:06.990Z,1019.4
2022-10-11T12:10:16.253Z,1019.5
2022-10-11T12:11:01.723Z,1019.4
2022-10-11T12:12:05.099Z,1019.4
2022-10-11T12:13:07.356Z,1019.4
2022-10-11T12:14:10.894Z,1019.4
2022-10-11T12:15:04.979Z,1019.5
2022-10-11T12:16:09.398Z,1019.5
2022-10-11T12:17:11.713Z,1019.5
2022-10-11T12:18:11.917Z,1019.5
2022-10-11T12:19:02.921Z,1019.5
2022-10-11T12:20:13.202Z,1019.5
2022-10-11T12:21:05.113Z,1019.5
2022-10-11T12:22:20.518Z,1019.5
2022-10-11T12:23:04.463Z,1019.5
2022-10-11T12:24:10.412Z,1019.5
2022-10-11T12:25:20.451Z,1019.5
2022-10-11T12:26:20.410Z,1019.5
2022-10-11T12:27:20.408Z,1019.5
2022-10-11T12:28:11.750Z,1019.6